Time;durP1;ratioP1;P1;durP2;ratioP2;P2;SDS_P1;SDS_P2;PMS_P1;PMS_P2;Temp;Humidity;BMP_temperature;BMP_pressure;BME280_temperature;BME280_humidity;BME280_pressure;Samples;Min_cycle;Max_cycle;Signal;HPM_P1;HPM_P2
2023/05/17 00:01:37;;;;;;;;;;;;;;;20.11;65.39;100339.78;7398025;19;1564;-50
2023/05/17 00:04:05;;;;;;;;;;;;;;;20.19;65.58;100350.63;7397457;19;1263;-50
2023/05/17 00:06:33;;;;;;;;;;;;;;;20.16;65.50;100342.88;7398167;19;1613;-50
2023/05/17 00:09:02;;;;;;;;;;;;;;;20.18;65.43;100345.41;7397316;19;1442;-49
2023/05/17 00:11:30;;;;;;;;;;;;;;;20.19;65.47;100345.25;7397054;19;1402;-50
2023/05/17 00:13:58;;;;;;;;;;;;;;;20.17;65.49;100354.44;7396369;19;1415;-49
2023/05/17 00:16:27;;;;;;;;;;;;;;;20.21;65.49;100355.81;7397129;19;1830;-50
2023/05/17 00:18:57;;;;;;;;;;;;;;;20.21;65.32;100351.31;7397008;19;1615;-50
2023/05/17 00:21:26;;;;;;;;;;;;;;;20.19;65.44;100382.84;7396682;19;1208;-50
2023/05/17 00:23:54;;;;;;;;;;;;;;;20.16;65.52;100398.41;7396988;19;1334;-50
2023/05/17 00:26:22;;;;;;;;;;;;;;;20.22;65.50;100390.56;7396921;19;1290;-50
2023/05/17 00:28:50;;;;;;;;;;;;;;;20.17;65.35;100398.22;7394924;19;1432;-50
2023/05/17 00:31:19;;;;;;;;;;;;;;;20.18;65.39;100391.88;7397206;19;1206;-49
2023/05/17 00:33:48;;;;;;;;;;;;;;;20.19;65.45;100382.84;7397329;19;1485;-50
2023/05/17 00:36:19;;;;;;;;;;;;;;;20.14;65.67;100360.13;7397577;19;1878;-50
2023/05/17 00:38:47;;;;;;;;;;;;;;;20.13;65.69;100369.16;7396893;19;1564;-49
2023/05/17 00:41:16;;;;;;;;;;;;;;;20.09;65.58;100341.78;7397180;19;1528;-50
2023/05/17 00:43:44;;;;;;;;;;;;;;;20.15;65.56;100351.06;7396524;19;1263;-50
2023/05/17 00:46:12;;;;;;;;;;;;;;;20.12;65.71;100357.59;7394769;19;1457;-50
2023/05/17 00:48:41;;;;;;;;;;;;;;;20.14;65.84;100387.81;7396046;19;1159;-50
2023/05/17 00:51:10;;;;;;;;;;;;;;;20.10;65.71;100381.06;7394356;19;1555;-49
2023/05/17 00:53:41;;;;;;;;;;;;;;;20.21;65.61;100378.16;7396898;19;1514;-50
2023/05/17 00:56:09;;;;;;;;;;;;;;;20.14;65.56;100378.94;7396677;19;1568;-49
2023/05/17 00:58:39;;;;;;;;;;;;;;;20.13;65.55;100386.13;7393995;19;1909;-49
2023/05/17 01:01:08;;;;;;;;;;;;;;;20.18;65.59;100391.88;7396174;19;1409;-49
2023/05/17 01:03:37;;;;;;;;;;;;;;;20.24;65.46;100369.78;7395679;19;1145;-50
2023/05/17 01:06:06;;;;;;;;;;;;;;;20.31;65.16;100358.44;7396288;19;1325;-49
2023/05/17 01:08:34;;;;;;;;;;;;;;;20.29;64.95;100379.22;7396334;19;1443;-50
2023/05/17 01:11:11;;;;;;;;;;;;;;;20.19;65.60;100384.66;7396240;19;1639;-50
2023/05/17 01:13:42;;;;;;;;;;;;;;;20.34;65.21;100406.47;7395984;19;1611;-50
2023/05/17 01:16:16;;;;;;;;;;;;;;;20.30;65.25;100386.28;7395488;19;1326;-50
2023/05/17 01:18:47;;;;;;;;;;;;;;;20.26;65.29;100394.66;7394142;19;1865;-50
2023/05/17 01:21:27;;;;;;;;;;;;;;;20.30;65.49;100410.47;7396371;19;1477;-50
2023/05/17 01:23:57;;;;;;;;;;;;;;;20.33;65.08;100437.84;7395923;19;1812;-49
2023/05/17 01:26:37;;;;;;;;;;;;;;;20.26;65.33;100451.03;7395361;19;1809;-50
2023/05/17 01:29:06;;;;;;;;;;;;;;;20.25;65.23;100443.13;7394140;19;1647;-49
2023/05/17 01:31:35;;;;;;;;;;;;;;;20.22;65.38;100428.16;7395104;19;1671;-49
2023/05/17 01:34:07;;;;;;;;;;;;;;;20.22;65.35;100412.06;7396553;19;1476;-49
2023/05/17 01:36:36;;;;;;;;;;;;;;;20.26;65.17;100402.69;7396391;19;1714;-50
2023/05/17 01:39:04;;;;;;;;;;;;;;;20.19;65.45;100390.03;7395607;19;1051;-49
2023/05/17 01:41:38;;;;;;;;;;;;;;;20.14;65.42;100389.66;7393101;19;1985;-50
2023/05/17 01:44:14;;;;;;;;;;;;;;;20.05;66.15;100378.84;7396461;19;1059;-49
2023/05/17 01:46:43;;;;;;;;;;;;;;;20.62;64.61;100365.13;7396658;19;1310;-50
2023/05/17 01:49:13;;;;;;;;;;;;;;;20.98;63.77;100356.97;7395988;19;1936;-50
2023/05/17 01:51:46;;;;;;;;;;;;;;;21.35;62.83;100371.97;7394579;19;1936;-50
2023/05/17 01:54:15;;;;;;;;;;;;;;;21.19;63.35;100382.66;7395108;19;1615;-50
2023/05/17 01:56:50;;;;;;;;;;;;;;;21.30;62.74;100384.22;7398334;19;1872;-50
2023/05/17 01:59:23;;;;;;;;;;;;;;;20.93;64.12;100391.56;7402364;19;1294;-50
2023/05/17 02:01:52;;;;;;;;;;;;;;;20.98;63.94;100353.44;7401809;19;1482;-50
2023/05/17 02:04:21;;;;;;;;;;;;;;;21.08;63.90;100350.66;7403099;19;1576;-50
2023/05/17 02:06:49;;;;;;;;;;;;;;;21.20;63.64;100342.13;7404215;19;1394;-50
2023/05/17 02:09:17;;;;;;;;;;;;;;;21.40;63.03;100331.13;7403191;19;1741;-50
2023/05/17 02:11:48;;;;;;;;;;;;;;;21.56;62.62;100327.69;7402819;19;1860;-50
2023/05/17 02:14:17;;;;;;;;;;;;;;;21.61;62.84;100318.13;7403289;19;1730;-50
2023/05/17 02:16:45;;;;;;;;;;;;;;;21.63;62.74;100312.59;7403898;19;1330;-50
2023/05/17 02:19:13;;;;;;;;;;;;;;;21.66;62.58;100314.94;7400132;19;1866;-50
2023/05/17 02:21:42;;;;;;;;;;;;;;;21.63;62.81;100301.81;7402066;19;1861;-50
2023/05/17 02:24:10;;;;;;;;;;;;;;;21.61;62.63;100285.84;7402342;19;1877;-50
2023/05/17 02:26:41;;;;;;;;;;;;;;;21.68;62.70;100271.72;7402726;19;1761;-50
2023/05/17 02:29:12;;;;;;;;;;;;;;;21.66;62.63;100282.66;7399725;19;1742;-50
2023/05/17 02:31:40;;;;;;;;;;;;;;;21.70;62.69;100272.41;7402134;19;1551;-50
2023/05/17 02:34:09;;;;;;;;;;;;;;;21.78;62.55;100308.22;7400148;19;1196;-50
2023/05/17 02:36:37;;;;;;;;;;;;;;;21.76;62.61;100356.00;7400818;19;1564;-50
2023/05/17 02:39:05;;;;;;;;;;;;;;;21.77;62.55;100343.41;7399846;19;1855;-50
2023/05/17 02:41:34;;;;;;;;;;;;;;;21.79;62.46;100352.16;7400219;19;1493;-50
2023/05/17 02:44:02;;;;;;;;;;;;;;;21.83;62.36;100357.03;7401693;19;1282;-51
2023/05/17 02:46:33;;;;;;;;;;;;;;;21.84;62.32;100341.72;7401286;19;1496;-50
2023/05/17 02:49:01;;;;;;;;;;;;;;;21.83;62.28;100340.06;7400458;19;1302;-50
2023/05/17 02:51:29;;;;;;;;;;;;;;;21.88;62.56;100345.78;7399487;19;1294;-50
2023/05/17 02:53:58;;;;;;;;;;;;;;;21.93;62.14;100380.31;7401279;19;1342;-50
2023/05/17 02:56:26;;;;;;;;;;;;;;;21.91;62.32;100366.16;7400721;19;1714;-50
2023/05/17 02:58:56;;;;;;;;;;;;;;;21.92;62.36;100338.22;7398566;19;1873;-50
2023/05/17 03:01:24;;;;;;;;;;;;;;;21.91;62.33;100342.75;7401337;19;1730;-50
2023/05/17 03:03:55;;;;;;;;;;;;;;;21.95;62.38;100340.59;7399506;19;1513;-50
2023/05/17 03:06:23;;;;;;;;;;;;;;;21.97;62.25;100341.28;7400377;19;1544;-50
2023/05/17 03:08:52;;;;;;;;;;;;;;;22.04;62.18;100351.22;7399296;19;1476;-50
2023/05/17 03:11:20;;;;;;;;;;;;;;;22.02;62.20;100341.59;7400608;19;1504;-50
2023/05/17 03:13:50;;;;;;;;;;;;;;;22.05;62.37;100333.19;7402404;19;1393;-50
2023/05/17 03:16:18;;;;;;;;;;;;;;;22.00;62.22;100319.38;7400353;19;1900;-50
2023/05/17 03:18:46;;;;;;;;;;;;;;;22.04;62.12;100316.22;7399475;19;1844;-50
2023/05/17 03:21:17;;;;;;;;;;;;;;;22.06;62.05;100316.03;7400244;19;1326;-50
2023/05/17 03:23:46;;;;;;;;;;;;;;;22.05;62.20;100319.75;7400308;19;1565;-50
2023/05/17 03:26:14;;;;;;;;;;;;;;;22.12;62.12;100325.28;7399160;19;1619;-50
2023/05/17 03:28:42;;;;;;;;;;;;;;;22.13;62.10;100335.06;7397627;19;1366;-50
2023/05/17 03:31:10;;;;;;;;;;;;;;;22.13;62.08;100349.38;7398259;19;1532;-50
2023/05/17 03:33:39;;;;;;;;;;;;;;;22.10;62.31;100354.22;7399539;19;1410;-50
2023/05/17 03:36:08;;;;;;;;;;;;;;;21.93;62.68;100364.97;7396770;19;2038;-50
2023/05/17 03:38:39;;;;;;;;;;;;;;;21.82;62.89;100370.66;7397643;19;1847;-50
2023/05/17 03:41:07;;;;;;;;;;;;;;;21.72;63.45;100346.56;7395618;19;1296;-50
2023/05/17 03:43:36;;;;;;;;;;;;;;;21.63;63.77;100343.03;7330203;19;15358;-50
2023/05/17 03:46:04;;;;;;;;;;;;;;;21.62;63.86;100329.72;7396549;19;1390;-50
2023/05/17 03:48:33;;;;;;;;;;;;;;;21.59;63.94;100336.28;7397940;19;1393;-51
2023/05/17 03:51:01;;;;;;;;;;;;;;;21.58;64.04;100334.59;7397109;19;1603;-50
2023/05/17 03:53:29;;;;;;;;;;;;;;;21.68;63.82;100333.63;7398188;19;1625;-50
2023/05/17 03:56:00;;;;;;;;;;;;;;;21.77;63.63;100321.88;7395826;19;1457;-51
2023/05/17 03:58:28;;;;;;;;;;;;;;;22.01;63.26;100343.47;7397404;19;1852;-50
2023/05/17 04:00:57;;;;;;;;;;;;;;;21.89;63.42;100346.63;7397514;19;1179;-50
2023/05/17 04:03:25;;;;;;;;;;;;;;;21.48;65.00;100371.53;7398584;19;1547;-51
2023/05/17 04:05:54;;;;;;;;;;;;;;;21.26;65.00;100389.06;7399656;19;1025;-50
2023/05/17 04:08:22;;;;;;;;;;;;;;;21.19;65.02;100372.72;7397758;19;1556;-51
2023/05/17 04:10:50;;;;;;;;;;;;;;;21.17;65.38;100385.50;7394668;19;1277;-50
2023/05/17 04:13:21;;;;;;;;;;;;;;;20.97;65.93;100357.97;7394932;19;1453;-51
2023/05/17 04:15:49;;;;;;;;;;;;;;;21.35;64.38;100392.66;7394006;19;1543;-51
2023/05/17 04:18:18;;;;;;;;;;;;;;;21.38;64.46;100382.38;7392619;19;1858;-51
2023/05/17 04:20:46;;;;;;;;;;;;;;;21.34;64.44;100383.72;7392931;19;1586;-51
2023/05/17 04:23:14;;;;;;;;;;;;;;;21.23;64.63;100376.78;7394778;19;1521;-51
2023/05/17 04:25:43;;;;;;;;;;;;;;;21.14;64.92;100390.34;7393877;19;1927;-50
2023/05/17 04:28:11;;;;;;;;;;;;;;;21.06;65.00;100378.50;7393245;19;1254;-51
2023/05/17 04:30:46;;;;;;;;;;;;;;;21.06;65.15;100372.31;7396132;19;1090;-50
2023/05/17 04:33:15;;;;;;;;;;;;;;;20.98;65.40;100389.22;7397739;19;1954;-50
2023/05/17 04:35:44;;;;;;;;;;;;;;;20.88;65.58;100384.97;7397549;19;1486;-50
2023/05/17 04:38:13;;;;;;;;;;;;;;;20.88;65.63;100383.09;7396099;19;1856;-50
2023/05/17 04:40:41;;;;;;;;;;;;;;;20.83;65.79;100396.16;7396185;19;1529;-50
2023/05/17 04:43:09;;;;;;;;;;;;;;;20.79;65.54;100386.72;7397320;19;1084;-50
2023/05/17 04:45:38;;;;;;;;;;;;;;;20.74;66.07;100394.44;7396286;19;1972;-51
2023/05/17 04:48:09;;;;;;;;;;;;;;;20.72;65.80;100393.75;7396209;19;1539;-51
2023/05/17 04:50:37;;;;;;;;;;;;;;;20.69;65.87;100404.78;7396528;19;1309;-51
2023/05/17 04:53:05;;;;;;;;;;;;;;;20.76;65.76;100408.56;7396464;19;1568;-50
2023/05/17 04:55:33;;;;;;;;;;;;;;;20.69;65.92;100407.47;7396185;19;1466;-50
2023/05/17 04:58:02;;;;;;;;;;;;;;;20.68;65.72;100393.19;7396717;19;1863;-51
2023/05/17 05:00:30;;;;;;;;;;;;;;;20.61;65.92;100384.06;7396545;19;1227;-50
2023/05/17 05:02:58;;;;;;;;;;;;;;;20.66;66.09;100387.16;7395796;19;1179;-51
2023/05/17 05:05:30;;;;;;;;;;;;;;;20.62;66.01;100364.28;7396499;19;1434;-50
2023/05/17 05:07:58;;;;;;;;;;;;;;;20.64;65.79;100365.78;7396275;19;2046;-50
2023/05/17 05:10:27;;;;;;;;;;;;;;;20.62;65.95;100361.59;7396007;19;1442;-51
2023/05/17 05:12:56;;;;;;;;;;;;;;;20.56;66.04;100354.13;7396416;19;1610;-50
2023/05/17 05:15:25;;;;;;;;;;;;;;;20.58;66.09;100382.50;7395915;19;1671;-50
2023/05/17 05:17:53;;;;;;;;;;;;;;;20.60;65.97;100372.47;7395868;19;1849;-50
2023/05/17 05:20:21;;;;;;;;;;;;;;;20.65;65.53;100375.56;7396493;19;1547;-50
2023/05/17 05:22:52;;;;;;;;;;;;;;;20.62;65.51;100383.91;7395786;19;1206;-50
2023/05/17 05:25:21;;;;;;;;;;;;;;;20.69;65.40;100385.97;7396081;19;1516;-51
2023/05/17 05:27:49;;;;;;;;;;;;;;;20.71;65.34;100390.22;7396393;19;1503;-50
2023/05/17 05:30:21;;;;;;;;;;;;;;;20.79;65.27;100400.16;7396644;19;1369;-51
2023/05/17 05:32:49;;;;;;;;;;;;;;;20.79;65.14;100414.47;7404482;19;1381;-50
2023/05/17 05:35:18;;;;;;;;;;;;;;;20.83;65.08;100418.53;7404989;19;1920;-50
2023/05/17 05:37:46;;;;;;;;;;;;;;;20.90;64.84;100426.81;7404956;19;1465;-50
2023/05/17 05:40:18;;;;;;;;;;;;;;;20.89;64.78;100427.81;7397410;19;1960;-50
2023/05/17 05:42:46;;;;;;;;;;;;;;;20.80;64.85;100416.13;7405389;19;992;-50
2023/05/17 05:45:14;;;;;;;;;;;;;;;20.83;64.91;100421.22;7401968;19;1841;-50
2023/05/17 05:47:42;;;;;;;;;;;;;;;20.75;64.98;100420.28;7404602;19;1721;-50
2023/05/17 05:50:11;;;;;;;;;;;;;;;20.73;65.19;100417.78;7403172;19;1528;-50
2023/05/17 05:52:40;;;;;;;;;;;;;;;20.80;64.93;100432.25;7402847;19;1374;-50
2023/05/17 05:55:08;;;;;;;;;;;;;;;20.79;65.03;100427.03;7402557;19;1170;-51
2023/05/17 05:57:39;;;;;;;;;;;;;;;20.73;65.13;100431.22;7402803;19;1509;-50
2023/05/17 06:00:08;;;;;;;;;;;;;;;20.70;65.14;100444.09;7400924;19;1950;-50
2023/05/17 06:02:37;;;;;;;;;;;;;;;20.70;65.35;100446.78;7401425;19;1797;-51
2023/05/17 06:05:05;;;;;;;;;;;;;;;20.44;64.98;100391.13;7401864;19;1460;-50
2023/05/17 06:07:34;;;;;;;;;;;;;;;20.63;65.36;100446.53;7402436;19;1444;-50
2023/05/17 06:10:02;;;;;;;;;;;;;;;20.66;65.11;100432.81;7401834;19;1543;-51
2023/05/17 06:12:30;;;;;;;;;;;;;;;20.64;65.06;100426.75;7401148;19;1206;-50
2023/05/17 06:15:01;;;;;;;;;;;;;;;20.62;65.49;100434.13;7401592;19;1628;-50
2023/05/17 06:17:29;;;;;;;;;;;;;;;20.58;65.52;100432.72;7401427;19;1493;-50
2023/05/17 06:19:58;;;;;;;;;;;;;;;20.49;65.74;100433.63;7400324;19;1843;-50
2023/05/17 06:22:26;;;;;;;;;;;;;;;20.55;65.69;100454.50;7401863;19;1564;-51
2023/05/17 06:24:54;;;;;;;;;;;;;;;20.52;65.75;100461.03;7402638;19;1496;-50
2023/05/17 06:27:23;;;;;;;;;;;;;;;20.48;65.67;100448.91;7402402;19;1184;-50
2023/05/17 06:29:51;;;;;;;;;;;;;;;20.42;65.82;100477.22;7398375;19;1236;-50
2023/05/17 06:32:23;;;;;;;;;;;;;;;20.42;65.92;100438.78;7401461;19;1568;-50
2023/05/17 06:34:51;;;;;;;;;;;;;;;20.35;66.08;100453.78;7400243;19;1258;-50
2023/05/17 06:37:19;;;;;;;;;;;;;;;20.26;66.58;100456.41;7402022;19;1559;-50
2023/05/17 06:39:47;;;;;;;;;;;;;;;20.17;66.62;100457.28;7400851;19;1858;-50
2023/05/17 06:42:16;;;;;;;;;;;;;;;20.14;66.58;100452.25;7399784;19;1238;-50
2023/05/17 06:44:44;;;;;;;;;;;;;;;20.20;66.50;100457.00;7399880;19;1549;-51
2023/05/17 06:47:12;;;;;;;;;;;;;;;20.30;66.34;100440.00;7401144;19;1939;-50
2023/05/17 06:49:43;;;;;;;;;;;;;;;20.20;66.54;100432.84;7401156;19;1638;-50
2023/05/17 06:52:12;;;;;;;;;;;;;;;20.11;66.57;100449.00;7400393;19;1117;-50
2023/05/17 06:54:40;;;;;;;;;;;;;;;19.96;67.05;100454.06;7400475;19;1447;-51
2023/05/17 06:57:08;;;;;;;;;;;;;;;19.68;64.05;100451.31;7400295;19;1803;-50
2023/05/17 06:59:37;;;;;;;;;;;;;;;19.77;64.00;100455.81;7392766;19;1859;-50
2023/05/17 07:02:05;;;;;;;;;;;;;;;20.20;62.84;100451.63;7397800;19;1672;-50
2023/05/17 07:04:34;;;;;;;;;;;;;;;20.25;62.74;100448.50;7396850;19;1474;-50
2023/05/17 07:07:05;;;;;;;;;;;;;;;20.23;63.93;100437.06;7398280;19;1265;-50
2023/05/17 07:09:33;;;;;;;;;;;;;;;20.24;63.97;100436.91;7398297;19;1564;-51
2023/05/17 07:12:01;;;;;;;;;;;;;;;20.42;63.56;100441.47;7398288;19;1657;-50
2023/05/17 07:14:29;;;;;;;;;;;;;;;20.38;63.47;100445.44;7398577;19;1047;-50
2023/05/17 07:16:58;;;;;;;;;;;;;;;20.46;63.79;100429.41;7398536;19;1484;-50
2023/05/17 07:19:27;;;;;;;;;;;;;;;20.48;64.24;100450.75;7397174;19;1868;-50
2023/05/17 07:21:55;;;;;;;;;;;;;;;20.48;64.22;100454.28;7398516;19;1176;-50
2023/05/17 07:24:26;;;;;;;;;;;;;;;20.42;64.70;100444.16;7397998;19;1298;-50
2023/05/17 07:26:54;;;;;;;;;;;;;;;20.49;64.66;100447.88;7397645;19;1560;-50
2023/05/17 07:29:22;;;;;;;;;;;;;;;20.35;65.21;100464.53;7396111;19;1222;-50
2023/05/17 07:31:51;;;;;;;;;;;;;;;20.43;64.71;100456.56;7398993;19;1457;-50
2023/05/17 07:34:19;;;;;;;;;;;;;;;20.47;64.92;100455.25;7398280;19;1540;-50
2023/05/17 07:36:47;;;;;;;;;;;;;;;20.39;65.21;100457.88;7398555;19;1528;-50
2023/05/17 07:39:16;;;;;;;;;;;;;;;20.55;65.23;100494.78;7397430;19;1842;-49
2023/05/17 07:41:46;;;;;;;;;;;;;;;20.51;65.32;100469.22;7397643;19;1222;-50
2023/05/17 07:44:15;;;;;;;;;;;;;;;20.51;65.13;100472.75;7399531;19;1628;-50
2023/05/17 07:46:43;;;;;;;;;;;;;;;20.49;65.14;100461.31;7399257;19;1044;-50
2023/05/17 07:49:11;;;;;;;;;;;;;;;20.49;65.14;100461.31;7397315;19;1512;-50
2023/05/17 07:51:39;;;;;;;;;;;;;;;20.56;65.05;100466.94;7398468;19;1536;-50
2023/05/17 07:54:08;;;;;;;;;;;;;;;20.49;65.26;100460.50;7397290;19;1214;-50
2023/05/17 07:56:36;;;;;;;;;;;;;;;20.48;65.44;100466.88;7397628;19;1263;-50
2023/05/17 07:59:07;;;;;;;;;;;;;;;20.46;65.44;100461.66;7396649;19;1851;-51
2023/05/17 08:01:35;;;;;;;;;;;;;;;20.46;65.60;100454.41;7398198;19;1713;-50
2023/05/17 08:04:03;;;;;;;;;;;;;;;20.47;65.56;100455.25;7397614;19;1670;-50
2023/05/17 08:06:32;;;;;;;;;;;;;;;20.50;65.58;100452.28;7398424;19;1489;-50
2023/05/17 08:09:00;;;;;;;;;;;;;;;20.52;65.66;100427.97;7397486;19;1148;-50
2023/05/17 08:11:28;;;;;;;;;;;;;;;20.57;65.57;100442.63;7398005;19;1654;-50
2023/05/17 08:13:57;;;;;;;;;;;;;;;20.49;65.67;100439.84;7398995;19;1041;-50
2023/05/17 08:16:28;;;;;;;;;;;;;;;20.54;65.67;100445.59;7397779;19;1535;-50
2023/05/17 08:18:56;;;;;;;;;;;;;;;20.53;65.74;100449.31;7397883;19;1866;-50
2023/05/17 08:21:24;;;;;;;;;;;;;;;20.47;65.85;100447.19;7397028;19;1535;-50
2023/05/17 08:23:52;;;;;;;;;;;;;;;20.41;66.05;100447.81;7397510;19;1660;-50
2023/05/17 08:26:21;;;;;;;;;;;;;;;20.25;65.98;100460.09;7396860;19;1302;-50
2023/05/17 08:28:49;;;;;;;;;;;;;;;20.04;65.40;100448.78;7396896;19;1264;-50
2023/05/17 08:31:17;;;;;;;;;;;;;;;19.97;65.69;100456.56;7398473;19;1061;-50
2023/05/17 08:33:51;;;;;;;;;;;;;;;19.97;65.73;100458.41;7395771;19;1484;-51
2023/05/17 08:36:20;;;;;;;;;;;;;;;20.26;65.85;100455.56;7396343;19;1179;-50
2023/05/17 08:38:48;;;;;;;;;;;;;;;20.22;65.85;100462.25;7397094;19;1265;-50
2023/05/17 08:41:17;;;;;;;;;;;;;;;20.23;65.56;100451.34;7395020;19;1858;-50
2023/05/17 08:43:45;;;;;;;;;;;;;;;20.35;65.34;100443.94;7396707;19;1096;-50
2023/05/17 08:46:16;;;;;;;;;;;;;;;20.49;64.96;100450.59;7396664;19;1572;-50
2023/05/17 08:48:44;;;;;;;;;;;;;;;20.32;65.40;100454.13;7395873;19;1539;-50
2023/05/17 08:51:16;;;;;;;;;;;;;;;20.32;65.35;100449.59;7396648;19;1599;-50
2023/05/17 08:53:46;;;;;;;;;;;;;;;20.33;65.33;100462.00;7396248;19;1720;-50
2023/05/17 08:56:15;;;;;;;;;;;;;;;20.36;65.37;100466.25;7395538;19;1199;-50
2023/05/17 08:58:45;;;;;;;;;;;;;;;20.26;65.55;100459.09;7395646;19;1389;-50
2023/05/17 09:01:13;;;;;;;;;;;;;;;20.40;65.57;100443.47;7393613;19;1864;-50
2023/05/17 09:03:42;;;;;;;;;;;;;;;20.49;65.11;100453.25;7394429;19;1851;-50
2023/05/17 09:06:12;;;;;;;;;;;;;;;20.51;65.00;100450.44;7395128;19;1688;-50
2023/05/17 09:08:44;;;;;;;;;;;;;;;20.61;64.74;100460.16;7397509;19;1556;-51
2023/05/17 09:11:12;;;;;;;;;;;;;;;20.47;65.13;100468.69;7397309;19;1302;-49
2023/05/17 09:13:40;;;;;;;;;;;;;;;20.34;65.64;100462.88;7397386;19;1838;-50
2023/05/17 09:16:14;;;;;;;;;;;;;;;20.33;65.76;100462.00;7396484;19;1523;-51
2023/05/17 09:18:43;;;;;;;;;;;;;;;20.18;66.02;100456.31;7396886;19;1761;-51
2023/05/17 09:21:15;;;;;;;;;;;;;;;20.24;66.01;100469.13;7393988;19;1918;-50
2023/05/17 09:23:48;;;;;;;;;;;;;;;20.17;66.50;100468.03;7395660;19;1339;-50
2023/05/17 09:26:17;;;;;;;;;;;;;;;20.29;66.25;100475.88;7395313;19;1519;-51
2023/05/17 09:28:46;;;;;;;;;;;;;;;20.00;67.04;100471.56;7393620;19;1503;-53
2023/05/17 09:31:16;;;;;;;;;;;;;;;20.06;66.88;100470.94;7395723;19;1824;-49
2023/05/17 09:33:45;;;;;;;;;;;;;;;20.09;67.18;100470.63;7391465;19;1131;-49
2023/05/17 09:36:17;;;;;;;;;;;;;;;20.01;67.34;100483.97;7389152;19;1464;-49
2023/05/17 09:38:53;;;;;;;;;;;;;;;20.24;66.72;100489.78;7389232;19;1349;-49
2023/05/17 09:41:21;;;;;;;;;;;;;;;20.21;66.71;100487.38;7392036;19;1903;-49
2023/05/17 09:43:50;;;;;;;;;;;;;;;20.09;67.67;100494.78;7397125;19;1489;-49
2023/05/17 09:46:18;;;;;;;;;;;;;;;20.04;67.58;100499.78;7395390;19;1425;-49
2023/05/17 09:48:46;;;;;;;;;;;;;;;20.22;67.04;100503.34;7394455;19;2179;-49
2023/05/17 09:51:15;;;;;;;;;;;;;;;20.01;67.61;100508.13;7394255;19;1507;-48
2023/05/17 09:53:43;;;;;;;;;;;;;;;20.21;66.86;100504.34;7394243;19;1562;-49
2023/05/17 09:56:14;;;;;;;;;;;;;;;20.37;66.38;100497.47;7395097;19;1539;-49
2023/05/17 09:58:44;;;;;;;;;;;;;;;20.13;67.14;100498.88;7391759;19;1453;-49
2023/05/17 10:01:12;;;;;;;;;;;;;;;19.97;67.60;100493.31;7389311;19;1845;-49
2023/05/17 10:03:40;;;;;;;;;;;;;;;20.03;67.16;100492.69;7392502;19;1303;-49
2023/05/17 10:06:11;;;;;;;;;;;;;;;20.24;66.99;100495.16;7393217;19;1413;-49
2023/05/17 10:44:51;;;;;;;;;;;;;;;20.26;69.78;100475.19;7428501;19;1623;-63
2023/05/17 10:47:19;;;;;;;;;;;;;;;20.27;69.67;100490.31;7423220;19;1519;-58
2023/05/17 10:49:50;;;;;;;;;;;;;;;20.31;70.23;100488.16;7415000;19;1496;-58
2023/05/17 10:52:19;;;;;;;;;;;;;;;20.15;69.97;100479.94;7416688;19;1617;-57
2023/05/17 10:54:50;;;;;;;;;;;;;;;20.02;70.83;100475.75;7416390;19;1384;-57
2023/05/17 10:57:22;;;;;;;;;;;;;;;20.04;70.69;100478.31;7423264;19;1487;-58
2023/05/17 11:00:06;;;;;;;;;;;;;;;20.00;71.11;100471.56;6389404;19;10000695;-59
2023/05/17 11:02:35;;;;;;;;;;;;;;;19.92;71.12;100460.72;7413884;19;1873;-58
2023/05/17 11:05:04;;;;;;;;;;;;;;;19.98;71.59;100470.84;7401423;19;1570;-58
2023/05/17 11:07:36;;;;;;;;;;;;;;;19.99;71.19;100456.41;7413808;19;1265;-56
2023/05/17 11:10:07;;;;;;;;;;;;;;;20.08;70.75;100463.59;7421601;19;1571;-56
2023/05/17 11:12:36;;;;;;;;;;;;;;;19.91;70.98;100470.59;7420628;19;1629;-56
2023/05/17 11:15:11;;;;;;;;;;;;;;;19.88;71.67;100460.16;7418851;19;1543;-55
2023/05/17 11:17:50;;;;;;;;;;;;;;;20.16;70.99;100466.38;7417071;19;1456;-56
2023/05/17 11:20:35;;;;;;;;;;;;;;;20.17;70.52;100476.09;7417265;19;1492;-57
2023/05/17 11:23:04;;;;;;;;;;;;;;;20.18;69.66;100475.09;7418636;19;1835;-57
2023/05/17 11:25:34;;;;;;;;;;;;;;;20.11;70.05;100468.63;7416377;19;1452;-56
2023/05/17 11:28:07;;;;;;;;;;;;;;;20.07;70.13;100472.63;7421458;19;1527;-55
2023/05/17 11:30:46;;;;;;;;;;;;;;;20.23;69.61;100488.94;7424493;19;1713;-56
2023/05/17 11:33:14;;;;;;;;;;;;;;;20.04;70.04;100467.56;7423656;19;1307;-56
2023/05/17 11:35:43;;;;;;;;;;;;;;;19.98;70.20;100485.09;7422817;19;1863;-55
2023/05/17 11:38:15;;;;;;;;;;;;;;;19.96;70.36;100475.53;7423177;19;1871;-55
2023/05/17 11:40:44;;;;;;;;;;;;;;;20.10;69.62;100469.66;7421608;19;1728;-56
2023/05/17 11:43:16;;;;;;;;;;;;;;;19.80;70.48;100477.00;7420736;19;1849;-55
2023/05/17 11:45:49;;;;;;;;;;;;;;;19.77;70.40;100474.59;7416867;19;1224;-56
2023/05/17 11:48:18;;;;;;;;;;;;;;;19.70;70.59;100465.44;7415433;19;1287;-56
2023/05/17 11:50:48;;;;;;;;;;;;;;;19.90;70.12;100468.06;7419638;19;1922;-56
2023/05/17 11:53:16;;;;;;;;;;;;;;;20.07;69.49;100456.50;7419706;19;1527;-57
2023/05/17 11:55:46;;;;;;;;;;;;;;;20.10;69.68;100456.22;7395357;19;1637;-57
2023/05/17 11:58:15;;;;;;;;;;;;;;;20.09;69.42;100446.47;7391165;19;1535;-58
2023/05/17 12:00:44;;;;;;;;;;;;;;;20.06;69.53;100441.41;7388900;19;2357;-56
2023/05/17 12:03:23;;;;;;;;;;;;;;;19.98;69.73;100436.78;7390886;19;1836;-56
2023/05/17 12:05:52;;;;;;;;;;;;;;;19.99;69.55;100426.91;7390341;19;1374;-56
2023/05/17 12:08:21;;;;;;;;;;;;;;;19.99;69.67;100426.91;7389158;19;1539;-56
2023/05/17 12:10:50;;;;;;;;;;;;;;;20.04;69.10;100419.25;7390060;19;1456;-56
2023/05/17 12:13:18;;;;;;;;;;;;;;;20.02;68.83;100415.88;7391917;19;1463;-56
2023/05/17 12:15:49;;;;;;;;;;;;;;;20.01;68.61;100395.38;7392230;19;1805;-56
2023/05/17 12:18:19;;;;;;;;;;;;;;;19.95;68.86;100402.19;7391374;19;1820;-56
2023/05/17 12:21:00;;;;;;;;;;;;;;;19.94;68.93;100405.88;7391873;19;1741;-56
2023/05/17 12:23:29;;;;;;;;;;;;;;;19.97;69.12;100402.06;7389346;19;1926;-55
2023/05/17 12:26:05;;;;;;;;;;;;;;;20.05;68.77;100394.09;7390590;19;1634;-57
2023/05/17 12:28:33;;;;;;;;;;;;;;;20.02;68.65;100395.25;7389899;19;1655;-56
2023/05/17 12:31:02;;;;;;;;;;;;;;;19.84;69.37;100392.53;7385686;19;1905;-56
2023/05/17 12:33:35;;;;;;;;;;;;;;;19.83;69.61;100396.19;7387916;19;1472;-56
2023/05/17 12:36:06;;;;;;;;;;;;;;;19.88;69.51;100397.59;7384148;19;1140;-57
2023/05/17 12:38:36;;;;;;;;;;;;;;;19.79;69.71;100392.13;7388889;19;1559;-56
2023/05/17 12:41:04;;;;;;;;;;;;;;;19.95;69.25;100399.50;7388223;19;1535;-56
2023/05/17 12:43:34;;;;;;;;;;;;;;;19.83;69.65;100406.09;7386661;19;1870;-56
2023/05/17 12:46:07;;;;;;;;;;;;;;;19.99;68.63;100394.69;7387196;19;1683;-56
2023/05/17 12:48:36;;;;;;;;;;;;;;;19.93;68.69;100406.03;7389520;19;1609;-56
2023/05/17 12:51:11;;;;;;;;;;;;;;;19.89;69.02;100373.28;7391594;19;1469;-56
2023/05/17 12:53:39;;;;;;;;;;;;;;;19.81;68.83;100382.09;7389790;19;1216;-57
2023/05/17 12:56:08;;;;;;;;;;;;;;;19.97;68.47;100383.25;7391035;19;1507;-56
2023/05/17 12:58:37;;;;;;;;;;;;;;;20.25;67.48;100379.56;7390731;19;1661;-56
2023/05/17 13:01:09;;;;;;;;;;;;;;;20.09;67.98;100386.59;7388485;19;2429;-57
2023/05/17 13:03:38;;;;;;;;;;;;;;;19.88;68.59;100395.75;7390896;19;1867;-57
2023/05/17 13:06:08;;;;;;;;;;;;;;;19.90;68.55;100395.63;7388396;19;1446;-56
2023/05/17 13:08:39;;;;;;;;;;;;;;;19.94;68.23;100386.28;7389577;19;1356;-56
2023/05/17 13:11:11;;;;;;;;;;;;;;;19.92;67.84;100377.53;7388956;19;1499;-56
2023/05/17 13:13:39;;;;;;;;;;;;;;;19.81;68.41;100376.72;7390549;19;1156;-56
2023/05/17 13:16:08;;;;;;;;;;;;;;;19.81;68.27;100390.13;7389322;19;1536;-57
2023/05/17 13:18:49;;;;;;;;;;;;;;;19.90;67.61;100379.50;7389348;19;1233;-57
2023/05/17 13:21:18;;;;;;;;;;;;;;;20.02;67.27;100378.31;7389553;19;1557;-61
2023/05/17 13:23:49;;;;;;;;;;;;;;;20.01;67.71;100379.28;7388288;19;1873;-56
2023/05/17 13:26:18;;;;;;;;;;;;;;;20.09;67.37;100384.72;7388735;19;1561;-57
2023/05/17 13:28:47;;;;;;;;;;;;;;;20.24;66.90;100382.38;7389353;19;1621;-57
2023/05/17 13:31:15;;;;;;;;;;;;;;;20.14;67.17;100381.63;7390858;19;1247;-57
2023/05/17 13:33:43;;;;;;;;;;;;;;;20.11;66.98;100376.53;7390201;19;1904;-57